sensor_id;sensor_type;location;lat;lon;timestamp;pressure;altitude;pressure_sealevel;temperature;humidity
70546;BME280;58098;51.680;5.134;2023-04-19T00:00:33;102736.66;;;8.24;100.00
70546;BME280;58098;51.680;5.134;2023-04-19T00:03:00;102727.84;;;8.28;100.00
70546;BME280;58098;51.680;5.134;2023-04-19T00:05:26;102740.38;;;8.40;100.00
70546;BME280;58098;51.680;5.134;2023-04-19T00:07:52;102723.81;;;8.42;100.00
70546;BME280;58098;51.680;5.134;2023-04-19T00:10:17;102734.47;;;8.58;100.00
70546;BME280;58098;51.680;5.134;2023-04-19T00:12:42;102740.88;;;8.71;100.00
70546;BME280;58098;51.680;5.134;2023-04-19T00:15:08;102723.47;;;8.72;100.00
70546;BME280;58098;51.680;5.134;2023-04-19T00:17:33;102729.97;;;8.83;100.00
70546;BME280;58098;51.680;5.134;2023-04-19T00:19:59;102731.25;;;8.93;100.00
70546;BME280;58098;51.680;5.134;2023-04-19T00:22:24;102728.31;;;9.01;100.00
70546;BME280;58098;51.680;5.134;2023-04-19T00:24:51;102727.97;;;9.10;100.00
70546;BME280;58098;51.680;5.134;2023-04-19T00:27:16;102716.88;;;9.05;100.00
70546;BME280;58098;51.680;5.134;2023-04-19T00:29:41;102730.16;;;9.19;100.00
70546;BME280;58098;51.680;5.134;2023-04-19T00:32:07;102718.78;;;9.21;100.00
70546;BME280;58098;51.680;5.134;2023-04-19T00:34:32;102713.81;;;9.15;100.00
70546;BME280;58098;51.680;5.134;2023-04-19T00:36:58;102722.72;;;9.30;100.00
70546;BME280;58098;51.680;5.134;2023-04-19T00:39:23;102712.47;;;9.27;100.00
70546;BME280;58098;51.680;5.134;2023-04-19T00:41:48;102722.59;;;9.33;100.00
70546;BME280;58098;51.680;5.134;2023-04-19T00:44:14;102720.75;;;9.35;100.00
70546;BME280;58098;51.680;5.134;2023-04-19T00:46:40;102714.09;;;9.29;100.00
70546;BME280;58098;51.680;5.134;2023-04-19T00:49:06;102722.47;;;9.36;100.00
70546;BME280;58098;51.680;5.134;2023-04-19T00:51:32;102707.09;;;9.30;100.00
70546;BME280;58098;51.680;5.134;2023-04-19T00:53:58;102719.00;;;9.36;100.00
70546;BME280;58098;51.680;5.134;2023-04-19T00:56:25;102710.13;;;9.40;100.00
70546;BME280;58098;51.680;5.134;2023-04-19T00:58:52;102721.19;;;9.45;100.00
70546;BME280;58098;51.680;5.134;2023-04-19T01:01:18;102701.50;;;9.39;100.00
70546;BME280;58098;51.680;5.134;2023-04-19T01:03:45;102711.44;;;9.50;100.00
70546;BME280;58098;51.680;5.134;2023-04-19T01:06:10;102698.59;;;9.45;100.00
70546;BME280;58098;51.680;5.134;2023-04-19T01:08:36;102697.53;;;9.49;100.00
70546;BME280;58098;51.680;5.134;2023-04-19T01:11:01;102714.63;;;9.56;100.00
70546;BME280;58098;51.680;5.134;2023-04-19T01:13:27;102703.28;;;9.57;100.00
70546;BME280;58098;51.680;5.134;2023-04-19T01:15:53;102704.19;;;9.56;100.00
70546;BME280;58098;51.680;5.134;2023-04-19T01:18:18;102698.06;;;9.57;100.00
70546;BME280;58098;51.680;5.134;2023-04-19T01:20:44;102683.63;;;9.50;100.00
70546;BME280;58098;51.680;5.134;2023-04-19T01:23:09;102706.72;;;9.58;100.00
70546;BME280;58098;51.680;5.134;2023-04-19T01:25:36;102691.00;;;9.59;100.00
70546;BME280;58098;51.680;5.134;2023-04-19T01:28:02;102695.41;;;9.59;100.00
70546;BME280;58098;51.680;5.134;2023-04-19T01:30:27;102692.84;;;9.57;100.00
70546;BME280;58098;51.680;5.134;2023-04-19T01:32:52;102687.63;;;9.57;100.00
70546;BME280;58098;51.680;5.134;2023-04-19T01:35:18;102688.91;;;9.67;100.00
70546;BME280;58098;51.680;5.134;2023-04-19T01:37:43;102694.38;;;9.61;100.00
70546;BME280;58098;51.680;5.134;2023-04-19T01:40:09;102705.41;;;9.68;100.00
70546;BME280;58098;51.680;5.134;2023-04-19T01:42:34;102693.34;;;9.65;100.00
70546;BME280;58098;51.680;5.134;2023-04-19T01:44:59;102699.97;;;9.72;100.00
70546;BME280;58098;51.680;5.134;2023-04-19T01:47:25;102689.81;;;9.66;100.00
70546;BME280;58098;51.680;5.134;2023-04-19T01:49:50;102703.22;;;9.77;100.00
70546;BME280;58098;51.680;5.134;2023-04-19T01:52:15;102698.78;;;9.79;100.00
70546;BME280;58098;51.680;5.134;2023-04-19T01:54:41;102704.63;;;9.84;100.00
70546;BME280;58098;51.680;5.134;2023-04-19T01:57:06;102674.03;;;9.69;100.00
70546;BME280;58098;51.680;5.134;2023-04-19T01:59:31;102692.50;;;9.83;100.00
70546;BME280;58098;51.680;5.134;2023-04-19T02:01:56;102673.00;;;9.73;100.00
70546;BME280;58098;51.680;5.134;2023-04-19T02:04:22;102687.63;;;9.76;100.00
70546;BME280;58098;51.680;5.134;2023-04-19T02:06:47;102670.66;;;9.67;100.00
70546;BME280;58098;51.680;5.134;2023-04-19T02:09:12;102682.50;;;9.74;100.00
70546;BME280;58098;51.680;5.134;2023-04-19T02:11:38;102679.91;;;9.74;100.00
70546;BME280;58098;51.680;5.134;2023-04-19T02:14:03;102677.28;;;9.74;100.00
70546;BME280;58098;51.680;5.134;2023-04-19T02:16:28;102674.75;;;9.73;100.00
70546;BME280;58098;51.680;5.134;2023-04-19T02:18:54;102669.47;;;9.74;100.00
70546;BME280;58098;51.680;5.134;2023-04-19T02:21:19;102686.81;;;9.75;100.00
70546;BME280;58098;51.680;5.134;2023-04-19T02:23:44;102684.00;;;9.80;100.00
70546;BME280;58098;51.680;5.134;2023-04-19T02:26:10;102695.97;;;9.84;100.00
70546;BME280;58098;51.680;5.134;2023-04-19T02:28:37;102671.44;;;9.69;100.00
70546;BME280;58098;51.680;5.134;2023-04-19T02:31:04;102688.34;;;9.79;100.00
70546;BME280;58098;51.680;5.134;2023-04-19T02:33:30;102672.16;;;9.73;100.00
70546;BME280;58098;51.680;5.134;2023-04-19T02:35:55;102686.88;;;9.92;100.00
70546;BME280;58098;51.680;5.134;2023-04-19T02:38:21;102693.78;;;9.93;100.00
70546;BME280;58098;51.680;5.134;2023-04-19T02:40:46;102683.91;;;9.81;100.00
70546;BME280;58098;51.680;5.134;2023-04-19T02:43:11;102682.22;;;9.80;100.00
70546;BME280;58098;51.680;5.134;2023-04-19T02:45:37;102690.75;;;9.84;100.00
70546;BME280;58098;51.680;5.134;2023-04-19T02:48:02;102697.88;;;9.80;100.00
70546;BME280;58098;51.680;5.134;2023-04-19T02:50:27;102685.41;;;9.68;100.00
70546;BME280;58098;51.680;5.134;2023-04-19T02:52:53;102684.75;;;9.63;100.00
70546;BME280;58098;51.680;5.134;2023-04-19T02:55:18;102698.50;;;9.67;100.00
70546;BME280;58098;51.680;5.134;2023-04-19T02:57:43;102697.84;;;9.62;100.00
70546;BME280;58098;51.680;5.134;2023-04-19T03:00:09;102685.97;;;9.56;100.00
70546;BME280;58098;51.680;5.134;2023-04-19T03:02:35;102693.78;;;9.56;100.00
70546;BME280;58098;51.680;5.134;2023-04-19T03:05:01;102687.13;;;9.49;100.00
70546;BME280;58098;51.680;5.134;2023-04-19T03:07:26;102708.47;;;9.57;100.00
70546;BME280;58098;51.680;5.134;2023-04-19T03:09:52;102704.25;;;9.55;100.00
70546;BME280;58098;51.680;5.134;2023-04-19T03:12:17;102685.66;;;9.44;100.00
70546;BME280;58098;51.680;5.134;2023-04-19T03:14:42;102700.03;;;9.52;100.00
70546;BME280;58098;51.680;5.134;2023-04-19T03:17:08;102689.13;;;9.44;100.00
70546;BME280;58098;51.680;5.134;2023-04-19T03:19:33;102694.94;;;9.49;100.00
70546;BME280;58098;51.680;5.134;2023-04-19T03:21:58;102701.09;;;9.48;100.00
70546;BME280;58098;51.680;5.134;2023-04-19T03:24:28;102684.03;;;9.41;100.00
70546;BME280;58098;51.680;5.134;2023-04-19T03:26:54;102677.06;;;9.42;100.00
70546;BME280;58098;51.680;5.134;2023-04-19T03:29:19;102688.06;;;9.48;100.00
70546;BME280;58098;51.680;5.134;2023-04-19T03:31:45;102690.44;;;9.53;100.00
70546;BME280;58098;51.680;5.134;2023-04-19T03:34:10;102694.69;;;9.55;100.00
70546;BME280;58098;51.680;5.134;2023-04-19T03:36:37;102681.00;;;9.50;100.00
70546;BME280;58098;51.680;5.134;2023-04-19T03:39:03;102685.38;;;9.50;100.00
70546;BME280;58098;51.680;5.134;2023-04-19T03:41:28;102693.50;;;9.62;100.00
70546;BME280;58098;51.680;5.134;2023-04-19T03:43:53;102682.16;;;9.63;100.00
70546;BME280;58098;51.680;5.134;2023-04-19T03:46:19;102673.06;;;9.53;100.00
70546;BME280;58098;51.680;5.134;2023-04-19T03:48:44;102686.56;;;9.61;100.00
70546;BME280;58098;51.680;5.134;2023-04-19T03:51:09;102681.78;;;9.52;100.00
70546;BME280;58098;51.680;5.134;2023-04-19T03:53:35;102679.47;;;9.46;100.00
70546;BME280;58098;51.680;5.134;2023-04-19T03:56:01;102679.94;;;9.54;100.00
70546;BME280;58098;51.680;5.134;2023-04-19T03:58:26;102670.72;;;9.47;100.00
70546;BME280;58098;51.680;5.134;2023-04-19T04:00:51;102679.59;;;9.43;100.00
70546;BME280;58098;51.680;5.134;2023-04-19T04:03:17;102677.63;;;9.48;100.00
70546;BME280;58098;51.680;5.134;2023-04-19T04:05:43;102693.91;;;9.53;100.00
70546;BME280;58098;51.680;5.134;2023-04-19T04:08:08;102685.38;;;9.50;100.00
70546;BME280;58098;51.680;5.134;2023-04-19T04:10:33;102695.56;;;9.54;100.00
70546;BME280;58098;51.680;5.134;2023-04-19T04:12:59;102672.69;;;9.42;100.00
70546;BME280;58098;51.680;5.134;2023-04-19T04:15:24;102697.50;;;9.51;100.00
70546;BME280;58098;51.680;5.134;2023-04-19T04:17:49;102680.66;;;9.39;100.00
70546;BME280;58098;51.680;5.134;2023-04-19T04:20:15;102689.88;;;9.46;100.00
70546;BME280;58098;51.680;5.134;2023-04-19T04:22:41;102681.56;;;9.38;100.00
70546;BME280;58098;51.680;5.134;2023-04-19T04:25:08;102691.72;;;9.44;100.00
70546;BME280;58098;51.680;5.134;2023-04-19T04:27:33;102688.66;;;9.35;100.00
70546;BME280;58098;51.680;5.134;2023-04-19T04:29:58;102697.50;;;9.51;100.00
70546;BME280;58098;51.680;5.134;2023-04-19T04:32:25;102699.53;;;9.44;100.00
70546;BME280;58098;51.680;5.134;2023-04-19T04:34:51;102687.19;;;9.29;100.00
70546;BME280;58098;51.680;5.134;2023-04-19T04:37:16;102685.44;;;9.29;100.00
70546;BME280;58098;51.680;5.134;2023-04-19T04:39:42;102693.41;;;9.25;100.00
70546;BME280;58098;51.680;5.134;2023-04-19T04:42:07;102699.69;;;9.21;100.00
70546;BME280;58098;51.680;5.134;2023-04-19T04:44:36;102688.25;;;9.05;100.00
70546;BME280;58098;51.680;5.134;2023-04-19T04:47:01;102711.03;;;9.00;100.00
70546;BME280;58098;51.680;5.134;2023-04-19T04:49:28;102702.56;;;8.95;100.00
70546;BME280;58098;51.680;5.134;2023-04-19T04:51:53;102700.59;;;8.80;100.00
70546;BME280;58098;51.680;5.134;2023-04-19T04:54:18;102713.88;;;8.74;100.00
70546;BME280;58098;51.680;5.134;2023-04-19T04:56:44;102717.50;;;8.70;100.00
70546;BME280;58098;51.680;5.134;2023-04-19T04:59:09;102719.44;;;8.64;100.00
70546;BME280;58098;51.680;5.134;2023-04-19T05:01:35;102706.88;;;8.54;100.00
70546;BME280;58098;51.680;5.134;2023-04-19T05:04:00;102721.03;;;8.69;100.00
70546;BME280;58098;51.680;5.134;2023-04-19T05:06:25;102710.06;;;8.60;100.00
70546;BME280;58098;51.680;5.134;2023-04-19T05:08:51;102710.31;;;8.54;100.00
70546;BME280;58098;51.680;5.134;2023-04-19T05:11:16;102720.66;;;8.56;100.00
70546;BME280;58098;51.680;5.134;2023-04-19T05:13:41;102724.91;;;8.58;100.00
70546;BME280;58098;51.680;5.134;2023-04-19T05:16:07;102711.34;;;8.50;100.00
70546;BME280;58098;51.680;5.134;2023-04-19T05:18:32;102722.34;;;8.57;100.00
70546;BME280;58098;51.680;5.134;2023-04-19T05:20:58;102718.09;;;8.54;100.00
70546;BME280;58098;51.680;5.134;2023-04-19T05:23:23;102713.75;;;8.55;100.00
70546;BME280;58098;51.680;5.134;2023-04-19T05:25:48;102723.28;;;8.56;100.00
70546;BME280;58098;51.680;5.134;2023-04-19T05:28:14;102710.44;;;8.51;100.00
70546;BME280;58098;51.680;5.134;2023-04-19T05:30:39;102701.97;;;8.46;100.00
70546;BME280;58098;51.680;5.134;2023-04-19T05:33:04;102725.75;;;8.59;100.00
70546;BME280;58098;51.680;5.134;2023-04-19T05:35:30;102729.72;;;8.68;100.00
70546;BME280;58098;51.680;5.134;2023-04-19T05:37:55;102715.34;;;8.59;100.00
70546;BME280;58098;51.680;5.134;2023-04-19T05:40:20;102683.03;;;8.43;100.00
70546;BME280;58098;51.680;5.134;2023-04-19T05:42:47;102716.25;;;8.58;100.00
70546;BME280;58098;51.680;5.134;2023-04-19T05:45:14;102728.84;;;8.69;100.00
70546;BME280;58098;51.680;5.134;2023-04-19T05:47:39;102713.34;;;8.66;100.00
70546;BME280;58098;51.680;5.134;2023-04-19T05:50:05;102722.50;;;8.74;100.00
70546;BME280;58098;51.680;5.134;2023-04-19T05:52:31;102700.97;;;8.71;100.00
70546;BME280;58098;51.680;5.134;2023-04-19T05:54:57;102706.84;;;8.76;100.00
70546;BME280;58098;51.680;5.134;2023-04-19T05:57:22;102707.66;;;8.76;100.00
70546;BME280;58098;51.680;5.134;2023-04-19T05:59:48;102701.50;;;8.79;100.00
70546;BME280;58098;51.680;5.134;2023-04-19T06:02:13;102715.31;;;8.81;100.00
70546;BME280;58098;51.680;5.134;2023-04-19T06:04:38;102720.91;;;8.92;100.00
70546;BME280;58098;51.680;5.134;2023-04-19T06:07:05;102734.38;;;9.01;100.00
70546;BME280;58098;51.680;5.134;2023-04-19T06:09:30;102730.03;;;9.02;100.00
70546;BME280;58098;51.680;5.134;2023-04-19T06:11:55;102719.84;;;8.96;100.00
70546;BME280;58098;51.680;5.134;2023-04-19T06:14:22;102716.22;;;9.00;100.00
70546;BME280;58098;51.680;5.134;2023-04-19T06:16:47;102724.19;;;9.17;100.00
70546;BME280;58098;51.680;5.134;2023-04-19T06:19:12;102727.69;;;9.16;100.00
70546;BME280;58098;51.680;5.134;2023-04-19T06:21:38;102722.59;;;9.13;100.00
70546;BME280;58098;51.680;5.134;2023-04-19T06:24:05;102735.75;;;9.30;100.00
70546;BME280;58098;51.680;5.134;2023-04-19T06:26:31;102737.25;;;9.36;100.00
70546;BME280;58098;51.680;5.134;2023-04-19T06:28:56;102733.53;;;9.41;100.00
70546;BME280;58098;51.680;5.134;2023-04-19T06:31:21;102733.34;;;9.46;100.00
70546;BME280;58098;51.680;5.134;2023-04-19T06:33:47;102726.38;;;9.46;100.00
70546;BME280;58098;51.680;5.134;2023-04-19T06:36:12;102720.19;;;9.49;100.00
70546;BME280;58098;51.680;5.134;2023-04-19T06:38:37;102721.63;;;9.54;100.00
70546;BME280;58098;51.680;5.134;2023-04-19T06:41:03;102724.69;;;9.64;100.00
70546;BME280;58098;51.680;5.134;2023-04-19T06:43:29;102719.41;;;9.65;100.00
70546;BME280;58098;51.680;5.134;2023-04-19T06:45:58;102704.13;;;9.76;100.00
70546;BME280;58098;51.680;5.134;2023-04-19T06:48:24;102714.28;;;9.82;100.00
70546;BME280;58098;51.680;5.134;2023-04-19T06:50:50;102723.59;;;9.88;100.00
70546;BME280;58098;51.680;5.134;2023-04-19T06:53:15;102724.03;;;9.98;100.00
70546;BME280;58098;51.680;5.134;2023-04-19T06:55:40;102734.03;;;10.07;100.00
70546;BME280;58098;51.680;5.134;2023-04-19T06:58:05;102721.19;;;10.02;100.00
70546;BME280;58098;51.680;5.134;2023-04-19T07:00:34;102723.44;;;10.10;100.00
70546;BME280;58098;51.680;5.134;2023-04-19T07:03:00;102736.59;;;10.27;100.00
70546;BME280;58098;51.680;5.134;2023-04-19T07:05:26;102732.69;;;10.35;100.00
70546;BME280;58098;51.680;5.134;2023-04-19T07:07:51;102723.84;;;10.38;100.00
70546;BME280;58098;51.680;5.134;2023-04-19T07:10:16;102715.66;;;10.45;100.00
70546;BME280;58098;51.680;5.134;2023-04-19T07:12:42;102723.28;;;10.50;100.00
70546;BME280;58098;51.680;5.134;2023-04-19T07:15:07;102714.53;;;10.51;100.00
70546;BME280;58098;51.680;5.134;2023-04-19T07:17:34;102731.13;;;10.67;100.00
70546;BME280;58098;51.680;5.134;2023-04-19T07:20:00;102728.91;;;10.77;100.00
70546;BME280;58098;51.680;5.134;2023-04-19T07:22:25;102730.53;;;10.79;100.00
70546;BME280;58098;51.680;5.134;2023-04-19T07:24:50;102732.84;;;10.85;100.00
70546;BME280;58098;51.680;5.134;2023-04-19T07:27:16;102712.88;;;10.84;100.00
70546;BME280;58098;51.680;5.134;2023-04-19T07:29:42;102719.47;;;10.91;100.00
70546;BME280;58098;51.680;5.134;2023-04-19T07:32:08;102707.03;;;10.96;100.00
70546;BME280;58098;51.680;5.134;2023-04-19T07:34:33;102706.41;;;11.08;100.00
70546;BME280;58098;51.680;5.134;2023-04-19T07:36:58;102716.34;;;11.35;100.00
70546;BME280;58098;51.680;5.134;2023-04-19T07:39:24;102712.88;;;11.34;100.00
70546;BME280;58098;51.680;5.134;2023-04-19T07:41:49;102717.31;;;11.49;100.00
70546;BME280;58098;51.680;5.134;2023-04-19T07:44:14;102700.78;;;11.49;100.00
70546;BME280;58098;51.680;5.134;2023-04-19T07:46:42;102715.03;;;11.76;100.00
70546;BME280;58098;51.680;5.134;2023-04-19T07:49:08;102709.13;;;11.88;100.00
70546;BME280;58098;51.680;5.134;2023-04-19T07:51:33;102706.97;;;11.96;100.00
70546;BME280;58098;51.680;5.134;2023-04-19T07:53:59;102715.22;;;12.20;100.00
70546;BME280;58098;51.680;5.134;2023-04-19T07:56:25;102694.97;;;12.23;100.00
70546;BME280;58098;51.680;5.134;2023-04-19T07:58:50;102723.13;;;12.34;100.00
70546;BME280;58098;51.680;5.134;2023-04-19T08:01:16;102710.47;;;12.42;100.00
70546;BME280;58098;51.680;5.134;2023-04-19T08:03:41;102712.00;;;12.46;100.00
70546;BME280;58098;51.680;5.134;2023-04-19T08:06:07;102720.94;;;12.57;100.00
70546;BME280;58098;51.680;5.134;2023-04-19T08:08:33;102699.94;;;12.43;100.00
70546;BME280;58098;51.680;5.134;2023-04-19T08:10:59;102695.63;;;12.42;100.00
70546;BME280;58098;51.680;5.134;2023-04-19T08:13:26;102710.66;;;12.69;100.00
70546;BME280;58098;51.680;5.134;2023-04-19T08:15:51;102704.53;;;12.84;100.00
70546;BME280;58098;51.680;5.134;2023-04-19T08:18:16;102722.78;;;13.15;100.00
70546;BME280;58098;51.680;5.134;2023-04-19T08:20:42;102704.06;;;13.07;100.00
70546;BME280;58098;51.680;5.134;2023-04-19T08:23:07;102692.41;;;12.97;100.00
70546;BME280;58098;51.680;5.134;2023-04-19T08:25:33;102699.91;;;13.03;100.00
70546;BME280;58098;51.680;5.134;2023-04-19T08:27:58;102698.28;;;13.16;100.00
70546;BME280;58098;51.680;5.134;2023-04-19T08:30:24;102711.75;;;13.24;100.00
70546;BME280;58098;51.680;5.134;2023-04-19T08:32:49;102691.81;;;13.21;100.00
70546;BME280;58098;51.680;5.134;2023-04-19T08:35:17;102698.13;;;13.33;100.00
70546;BME280;58098;51.680;5.134;2023-04-19T08:37:43;102694.53;;;13.48;100.00
70546;BME280;58098;51.680;5.134;2023-04-19T08:40:08;102705.59;;;13.39;100.00
70546;BME280;58098;51.680;5.134;2023-04-19T08:42:35;102694.75;;;13.31;100.00
70546;BME280;58098;51.680;5.134;2023-04-19T08:45:01;102687.06;;;13.28;100.00
70546;BME280;58098;51.680;5.134;2023-04-19T08:47:31;102708.50;;;13.35;100.00
70546;BME280;58098;51.680;5.134;2023-04-19T08:49:59;102710.84;;;13.39;100.00
70546;BME280;58098;51.680;5.134;2023-04-19T08:52:26;102690.97;;;13.63;100.00
70546;BME280;58098;51.680;5.134;2023-04-19T08:54:53;102685.69;;;13.77;100.00
70546;BME280;58098;51.680;5.134;2023-04-19T08:57:19;102696.59;;;13.71;100.00
70546;BME280;58098;51.680;5.134;2023-04-19T08:59:44;102684.22;;;13.73;100.00
70546;BME280;58098;51.680;5.134;2023-04-19T09:02:13;102690.75;;;13.80;100.00
70546;BME280;58098;51.680;5.134;2023-04-19T09:04:39;102700.25;;;14.10;100.00
70546;BME280;58098;51.680;5.134;2023-04-19T09:07:04;102692.97;;;14.01;100.00
70546;BME280;58098;51.680;5.134;2023-04-19T09:09:30;102690.94;;;13.92;100.00
70546;BME280;58098;51.680;5.134;2023-04-19T09:11:55;102695.41;;;14.04;100.00
70546;BME280;58098;51.680;5.134;2023-04-19T09:14:24;102694.03;;;14.25;100.00
70546;BME280;58098;51.680;5.134;2023-04-19T09:16:50;102689.59;;;14.39;100.00
70546;BME280;58098;51.680;5.134;2023-04-19T09:19:16;102675.16;;;14.59;100.00
70546;BME280;58098;51.680;5.134;2023-04-19T09:21:43;102688.38;;;14.45;100.00
70546;BME280;58098;51.680;5.134;2023-04-19T09:24:09;102680.31;;;14.34;100.00
70546;BME280;58098;51.680;5.134;2023-04-19T09:26:35;102672.78;;;14.42;100.00
70546;BME280;58098;51.680;5.134;2023-04-19T09:29:02;102694.84;;;14.39;100.00
70546;BME280;58098;51.680;5.134;2023-04-19T09:31:30;102685.81;;;14.31;100.00
70546;BME280;58098;51.680;5.134;2023-04-19T09:33:55;102684.63;;;14.08;100.00
70546;BME280;58098;51.680;5.134;2023-04-19T09:36:32;102690.78;;;14.07;100.00
70546;BME280;58098;51.680;5.134;2023-04-19T09:38:58;102702.88;;;14.10;99.79
70546;BME280;58098;51.680;5.134;2023-04-19T09:41:24;102688.56;;;14.01;100.00
70546;BME280;58098;51.680;5.134;2023-04-19T09:43:51;102695.59;;;14.01;100.00
70546;BME280;58098;51.680;5.134;2023-04-19T09:46:35;102679.66;;;14.04;100.00
70546;BME280;58098;51.680;5.134;2023-04-19T09:51:43;102686.34;;;14.22;95.72
70546;BME280;58098;51.680;5.134;2023-04-19T09:54:10;102684.69;;;14.21;90.57
70546;BME280;58098;51.680;5.134;2023-04-19T09:56:36;102680.66;;;14.15;99.02
70546;BME280;58098;51.680;5.134;2023-04-19T09:59:03;102680.06;;;14.24;99.14
70546;BME280;58098;51.680;5.134;2023-04-19T10:01:39;102678.59;;;14.47;100.00
70546;BME280;58098;51.680;5.134;2023-04-19T10:04:06;102672.19;;;14.51;91.93
70546;BME280;58098;51.680;5.134;2023-04-19T10:06:34;102666.47;;;14.32;84.94
70546;BME280;58098;51.680;5.134;2023-04-19T10:09:00;102667.72;;;14.39;88.67
70546;BME280;58098;51.680;5.134;2023-04-19T10:11:31;102677.53;;;14.49;85.63
70546;BME280;58098;51.680;5.134;2023-04-19T10:14:05;102672.69;;;14.95;100.00
70546;BME280;58098;51.680;5.134;2023-04-19T10:16:31;102671.19;;;15.42;98.20
70546;BME280;58098;51.680;5.134;2023-04-19T10:18:57;102682.91;;;15.38;69.06
70546;BME280;58098;51.680;5.134;2023-04-19T10:21:28;102653.56;;;15.18;65.17
70546;BME280;58098;51.680;5.134;2023-04-19T10:23:54;102671.31;;;15.15;75.72
70546;BME280;58098;51.680;5.134;2023-04-19T10:26:20;102668.69;;;15.02;66.25
70546;BME280;58098;51.680;5.134;2023-04-19T10:28:46;102662.59;;;15.14;72.51
70546;BME280;58098;51.680;5.134;2023-04-19T10:31:12;102670.88;;;15.21;71.55
70546;BME280;58098;51.680;5.134;2023-04-19T10:33:38;102649.03;;;15.20;68.48
70546;BME280;58098;51.680;5.134;2023-04-19T10:36:08;102644.78;;;15.56;72.28
70546;BME280;58098;51.680;5.134;2023-04-19T10:38:44;102651.78;;;15.68;62.77
70546;BME280;58098;51.680;5.134;2023-04-19T10:41:14;102651.78;;;15.68;63.56
70546;BME280;58098;51.680;5.134;2023-04-19T10:51:16;102639.22;;;15.23;59.26
70546;BME280;58098;51.680;5.134;2023-04-19T10:56:10;102659.88;;;15.16;57.66
70546;BME280;58098;51.680;5.134;2023-04-19T11:01:43;102641.19;;;15.44;71.33
70546;BME280;58098;51.680;5.134;2023-04-19T11:04:16;102648.63;;;15.75;64.62
70546;BME280;58098;51.680;5.134;2023-04-19T11:11:57;102640.47;;;15.91;67.07
70546;BME280;58098;51.680;5.134;2023-04-19T11:14:24;102638.91;;;15.89;58.29
70546;BME280;58098;51.680;5.134;2023-04-19T11:16:49;102630.75;;;15.68;57.60
70546;BME280;58098;51.680;5.134;2023-04-19T11:19:18;102657.28;;;15.65;56.85
70546;BME280;58098;51.680;5.134;2023-04-19T11:21:44;102652.66;;;15.56;61.46
70546;BME280;58098;51.680;5.134;2023-04-19T11:24:11;102631.38;;;15.71;61.91
70546;BME280;58098;51.680;5.134;2023-04-19T11:26:36;102645.78;;;16.02;69.94
70546;BME280;58098;51.680;5.134;2023-04-19T11:29:02;102644.59;;;16.30;64.31
70546;BME280;58098;51.680;5.134;2023-04-19T11:31:27;102626.59;;;16.24;57.63
70546;BME280;58098;51.680;5.134;2023-04-19T11:33:53;102593.22;;;16.24;55.89
70546;BME280;58098;51.680;5.134;2023-04-19T11:36:18;102629.91;;;16.62;53.96
70546;BME280;58098;51.680;5.134;2023-04-19T11:38:47;102618.97;;;16.56;55.49
70546;BME280;58098;51.680;5.134;2023-04-19T11:41:13;102628.03;;;17.20;74.70
70546;BME280;58098;51.680;5.134;2023-04-19T11:43:38;102630.69;;;17.53;74.92
70546;BME280;58098;51.680;5.134;2023-04-19T11:48:31;102627.06;;;17.43;59.13
70546;BME280;58098;51.680;5.134;2023-04-19T11:50:58;102622.41;;;17.57;57.38
70546;BME280;58098;51.680;5.134;2023-04-19T11:53:24;102594.06;;;17.70;56.94
70546;BME280;58098;51.680;5.134;2023-04-19T11:55:53;102601.31;;;18.21;67.14
70546;BME280;58098;51.680;5.134;2023-04-19T11:58:45;102609.44;;;18.29;48.67
70546;BME280;58098;51.680;5.134;2023-04-19T12:01:20;102581.72;;;17.92;49.15
70546;BME280;58098;51.680;5.134;2023-04-19T12:03:47;102595.53;;;17.52;47.60
70546;BME280;58098;51.680;5.134;2023-04-19T12:06:25;102583.63;;;17.47;46.77
70546;BME280;58098;51.680;5.134;2023-04-19T12:08:52;102586.59;;;17.75;56.05
70546;BME280;58098;51.680;5.134;2023-04-19T12:11:20;102572.34;;;17.99;52.31
70546;BME280;58098;51.680;5.134;2023-04-19T12:13:47;102563.63;;;18.60;57.31
70546;BME280;58098;51.680;5.134;2023-04-19T12:16:13;102582.50;;;19.06;50.03
70546;BME280;58098;51.680;5.134;2023-04-19T12:18:49;102568.63;;;19.73;51.97
70546;BME280;58098;51.680;5.134;2023-04-19T12:21:25;102577.66;;;19.42;44.40
70546;BME280;58098;51.680;5.134;2023-04-19T12:23:58;102574.00;;;19.03;42.09
70546;BME280;58098;51.680;5.134;2023-04-19T12:26:28;102565.50;;;18.99;40.18
70546;BME280;58098;51.680;5.134;2023-04-19T12:28:54;102571.94;;;19.46;54.48
70546;BME280;58098;51.680;5.134;2023-04-19T12:31:20;102577.72;;;19.80;40.99
70546;BME280;58098;51.680;5.134;2023-04-19T12:33:45;102576.44;;;20.03;43.29
70546;BME280;58098;51.680;5.134;2023-04-19T12:36:11;102571.56;;;20.47;41.37
70546;BME280;58098;51.680;5.134;2023-04-19T12:38:36;102553.41;;;20.13;40.22
70546;BME280;58098;51.680;5.134;2023-04-19T12:41:02;102531.41;;;19.84;37.67
70546;BME280;58098;51.680;5.134;2023-04-19T12:43:27;102550.88;;;19.54;37.45
70546;BME280;58098;51.680;5.134;2023-04-19T12:45:54;102568.22;;;19.87;41.66
70546;BME280;58098;51.680;5.134;2023-04-19T12:48:20;102537.53;;;19.75;36.41
70546;BME280;58098;51.680;5.134;2023-04-19T12:50:45;102528.31;;;19.79;37.21
70546;BME280;58098;51.680;5.134;2023-04-19T12:53:10;102545.47;;;19.65;38.36
70546;BME280;58098;51.680;5.134;2023-04-19T12:55:36;102550.94;;;19.93;37.51
70546;BME280;58098;51.680;5.134;2023-04-19T12:58:01;102541.16;;;19.74;36.25
70546;BME280;58098;51.680;5.134;2023-04-19T13:00:26;102544.09;;;19.71;37.72
70546;BME280;58098;51.680;5.134;2023-04-19T13:02:52;102535.16;;;19.53;34.92
70546;BME280;58098;51.680;5.134;2023-04-19T13:05:17;102513.53;;;19.48;34.41